Time;durP1;ratioP1;P1;durP2;ratioP2;P2;SDS_P1;SDS_P2;PMS_P1;PMS_P2;Temp;Humidity;BMP_temperature;BMP_pressure;BME280_temperature;BME280_humidity;BME280_pressure;Samples;Min_cycle;Max_cycle;Signal;HPM_P1;HPM_P2
2022/05/15 04:01:33;;;;;;;6.43;5.17;;;13.40;99.90;;;;;;5494247;23;20588;-64
2022/05/15 04:04:00;;;;;;;4.47;4.07;;;13.40;99.90;;;;;;4994260;28;20843;-64
2022/05/15 04:06:28;;;;;;;7.67;4.20;;;13.40;99.90;;;;;;4994011;28;20950;-64
2022/05/15 04:08:54;;;;;;;4.10;3.80;;;13.40;99.90;;;;;;4993775;28;20481;-64
2022/05/15 04:11:22;;;;;;;6.00;4.90;;;13.40;99.90;;;;;;4994046;28;20510;-64
2022/05/15 04:13:49;;;;;;;9.73;5.13;;;13.50;99.90;;;;;;4994199;28;20450;-64
2022/05/15 04:16:15;;;;;;;5.57;4.23;;;13.40;99.90;;;;;;4993759;28;20508;-64
2022/05/15 04:18:44;;;;;;;5.27;4.87;;;13.40;99.90;;;;;;4994081;28;20461;-64
2022/05/15 04:21:11;;;;;;;5.07;4.57;;;13.50;99.90;;;;;;4993957;28;21009;-64
2022/05/15 04:23:38;;;;;;;4.50;4.20;;;13.50;99.90;;;;;;4995416;28;20454;-64
2022/05/15 04:26:05;;;;;;;6.23;4.93;;;13.50;99.90;;;;;;4997761;28;20460;-64
2022/05/15 04:28:32;;;;;;;5.60;5.10;;;13.50;99.90;;;;;;4997594;28;20938;-64
2022/05/15 04:30:59;;;;;;;5.47;5.07;;;13.60;99.90;;;;;;4997951;28;20488;-63
2022/05/15 04:33:25;;;;;;;7.47;5.33;;;13.60;99.90;;;;;;4997569;28;20457;-63
2022/05/15 04:35:53;;;;;;;8.23;5.70;;;13.60;99.90;;;;;;5005107;28;20459;-65
2022/05/15 04:38:20;;;;;;;4.87;4.47;;;13.60;99.90;;;;;;5004005;28;20453;-64
2022/05/15 04:40:47;;;;;;;5.00;4.67;;;13.70;99.90;;;;;;5000937;28;20489;-64
2022/05/15 04:43:14;;;;;;;5.90;5.33;;;13.60;99.90;;;;;;5001093;28;20454;-64
2022/05/15 04:45:41;;;;;;;21.30;5.97;;;13.70;99.90;;;;;;4997988;28;20868;-64
2022/05/15 04:48:10;;;;;;;6.37;4.93;;;13.70;99.90;;;;;;5000524;28;20489;-64
2022/05/15 04:50:37;;;;;;;4.93;4.53;;;13.60;99.90;;;;;;5010285;28;20473;-64
2022/05/15 04:53:05;;;;;;;4.97;4.57;;;13.60;99.90;;;;;;5000715;28;20456;-64
2022/05/15 04:55:32;;;;;;;5.20;4.00;;;13.60;99.90;;;;;;4996911;28;20454;-66
2022/05/15 04:57:59;;;;;;;6.27;4.13;;;13.60;99.90;;;;;;4996817;28;20480;-64
2022/05/15 05:00:26;;;;;;;5.03;4.20;;;13.60;99.90;;;;;;4997020;28;20457;-64
2022/05/15 05:02:53;;;;;;;4.50;4.10;;;13.60;99.90;;;;;;4997736;28;20446;-64
2022/05/15 05:05:20;;;;;;;4.23;3.87;;;13.60;99.90;;;;;;4996825;28;20453;-64
2022/05/15 05:07:46;;;;;;;8.73;4.17;;;13.60;99.90;;;;;;4996859;28;20462;-64
2022/05/15 05:10:16;;;;;;;4.80;3.87;;;13.70;99.90;;;;;;4996890;28;20457;-64
2022/05/15 05:12:42;;;;;;;5.27;3.80;;;13.70;99.90;;;;;;4996808;28;20520;-64
2022/05/15 05:15:12;;;;;;;3.90;3.60;;;13.80;99.90;;;;;;4996945;28;20458;-64
2022/05/15 05:17:38;;;;;;;4.37;4.00;;;13.80;99.90;;;;;;4996824;28;20453;-64
2022/05/15 05:20:07;;;;;;;4.20;3.93;;;13.90;99.90;;;;;;4996966;28;20481;-64
2022/05/15 05:22:33;;;;;;;3.57;3.30;;;14.00;99.90;;;;;;4996838;28;20492;-64
2022/05/15 05:25:00;;;;;;;4.00;3.70;;;14.10;99.90;;;;;;4996582;28;20458;-64
2022/05/15 05:27:28;;;;;;;4.83;3.50;;;14.40;99.90;;;;;;4996564;28;20457;-64
2022/05/15 05:29:55;;;;;;;4.10;3.80;;;14.80;99.90;;;;;;4996544;28;20458;-64
2022/05/15 05:32:21;;;;;;;4.17;3.93;;;15.00;99.90;;;;;;4996208;28;20476;-64
2022/05/15 05:34:48;;;;;;;4.13;3.83;;;15.30;99.90;;;;;;4995858;28;20830;-64
2022/05/15 05:37:17;;;;;;;4.30;3.90;;;15.70;99.90;;;;;;4996332;28;20456;-64
2022/05/15 05:39:43;;;;;;;3.77;3.47;;;15.80;99.90;;;;;;4996396;28;20552;-64
2022/05/15 05:42:11;;;;;;;4.83;4.07;;;16.00;99.90;;;;;;4996234;28;20492;-64
2022/05/15 05:44:39;;;;;;;11.40;3.60;;;16.00;99.90;;;;;;4996227;28;20461;-64
2022/05/15 05:47:06;;;;;;;4.70;4.30;;;16.20;99.90;;;;;;4996079;28;20465;-64
2022/05/15 05:49:33;;;;;;;3.63;3.40;;;16.30;99.90;;;;;;4995949;28;20498;-63
2022/05/15 05:52:00;;;;;;;5.10;4.07;;;16.40;99.90;;;;;;4996258;28;20472;-63
2022/05/15 05:54:27;;;;;;;5.10;4.00;;;16.50;99.90;;;;;;4995932;28;20548;-64
2022/05/15 05:56:53;;;;;;;6.57;3.30;;;16.60;99.90;;;;;;4996316;28;20830;-63
2022/05/15 05:59:20;;;;;;;4.20;3.53;;;16.70;99.90;;;;;;4996191;28;20458;-64
2022/05/15 06:01:48;;;;;;;4.60;4.20;;;16.80;99.90;;;;;;4995341;28;20508;-63
2022/05/15 06:06:59;;;;;;;3.97;3.63;;;17.10;99.90;;;;;;4995787;28;20423;-64
2022/05/15 06:09:26;;;;;;;5.17;4.30;;;17.30;99.90;;;;;;4995955;28;20453;-64
2022/05/15 06:11:53;;;;;;;3.80;3.43;;;17.50;99.90;;;;;;4995811;28;20496;-64
2022/05/15 06:14:20;;;;;;;6.90;4.80;;;17.60;99.90;;;;;;4995409;28;20906;-64
2022/05/15 06:16:48;;;;;;;5.63;5.13;;;17.70;99.90;;;;;;4995581;28;20454;-64
2022/05/15 06:19:14;;;;;;;5.60;3.67;;;17.80;99.90;;;;;;4995546;28;20532;-65
2022/05/15 06:21:41;;;;;;;4.73;3.77;;;18.00;99.90;;;;;;4995773;28;20488;-64
2022/05/15 06:24:08;;;;;;;5.10;4.53;;;18.20;99.90;;;;;;4995535;28;20543;-64
2022/05/15 06:26:35;;;;;;;3.93;3.63;;;18.40;99.90;;;;;;4995658;28;20486;-64
2022/05/15 06:29:02;;;;;;;8.70;3.30;;;18.70;99.90;;;;;;4995676;28;20473;-64
2022/05/15 06:31:28;;;;;;;3.03;2.83;;;19.00;99.90;;;;;;4995216;28;20474;-64
2022/05/15 06:33:56;;;;;;;5.43;5.03;;;19.40;99.90;;;;;;4995452;28;20464;-64
2022/05/15 06:36:23;;;;;;;4.30;3.30;;;19.60;99.90;;;;;;4995477;28;20903;-64
2022/05/15 06:38:50;;;;;;;4.10;3.30;;;19.90;99.70;;;;;;4994914;28;20456;-64
2022/05/15 06:41:17;;;;;;;5.53;3.37;;;20.30;97.60;;;;;;4994997;28;20945;-64
2022/05/15 06:43:43;;;;;;;3.57;3.30;;;20.90;96.80;;;;;;4995311;28;20465;-64
2022/05/15 06:46:10;;;;;;;5.53;3.50;;;21.50;96.10;;;;;;4994865;28;20460;-64
2022/05/15 06:48:39;;;;;;;3.57;3.23;;;22.00;94.50;;;;;;4994903;28;20460;-64
2022/05/15 06:51:07;;;;;;;5.63;3.10;;;22.80;93.50;;;;;;4994660;28;20847;-64
2022/05/15 06:53:35;;;;;;;2.97;2.80;;;23.10;92.40;;;;;;4995213;28;20457;-64
2022/05/15 06:58:46;;;;;;;3.50;3.20;;;23.40;89.70;;;;;;4995322;28;20468;-64
2022/05/15 07:01:13;;;;;;;4.30;2.93;;;23.70;88.10;;;;;;4994907;28;20485;-64
2022/05/15 07:03:39;;;;;;;6.60;3.67;;;23.80;87.50;;;;;;4994514;28;20528;-64
2022/05/15 07:06:10;;;;;;;2.83;2.63;;;24.10;86.20;;;;;;4995449;28;20564;-64
2022/05/15 07:08:36;;;;;;;5.37;3.03;;;24.30;87.00;;;;;;4994748;28;20914;-64
2022/05/15 07:11:03;;;;;;;6.07;3.10;;;24.60;85.40;;;;;;4994817;28;20481;-64
2022/05/15 07:13:32;;;;;;;3.43;3.13;;;25.00;84.10;;;;;;4994925;28;20505;-64
2022/05/15 07:15:58;;;;;;;7.80;3.00;;;25.50;81.60;;;;;;4995016;28;20458;-64
2022/05/15 07:18:25;;;;;;;4.47;3.47;;;25.90;79.50;;;;;;4995174;28;20464;-65
2022/05/15 07:20:53;;;;;;;3.17;2.90;;;26.30;81.90;;;;;;4994777;28;20488;-64
2022/05/15 07:23:22;;;;;;;2.83;2.47;;;26.90;76.60;;;;;;4994402;28;20453;-65
2022/05/15 07:25:50;;;;;;;3.73;2.97;;;27.40;73.00;;;;;;4995067;28;20453;-64
2022/05/15 07:28:17;;;;;;;4.47;3.43;;;27.60;73.00;;;;;;4994656;28;20481;-64
2022/05/15 07:30:43;;;;;;;2.60;2.40;;;27.90;72.50;;;;;;4995053;28;20573;-64
2022/05/15 07:33:10;;;;;;;3.27;3.00;;;28.30;69.60;;;;;;4994898;28;20453;-65
2022/05/15 07:35:37;;;;;;;3.50;2.93;;;28.80;68.70;;;;;;4994976;28;20453;-65
2022/05/15 07:38:03;;;;;;;6.03;3.20;;;28.70;67.60;;;;;;4995088;28;20466;-65
2022/05/15 07:40:32;;;;;;;4.10;3.17;;;29.00;68.20;;;;;;4994654;28;20454;-64
2022/05/15 07:42:58;;;;;;;2.77;2.57;;;28.40;67.60;;;;;;4994694;28;20990;-65
2022/05/15 07:45:25;;;;;;;2.70;2.53;;;28.20;67.90;;;;;;4994392;28;20465;-65
2022/05/15 07:47:52;;;;;;;5.30;3.00;;;28.00;67.90;;;;;;4994693;28;20465;-64
2022/05/15 07:50:18;;;;;;;5.63;2.63;;;28.40;64.40;;;;;;4994643;28;20464;-65
2022/05/15 07:52:45;;;;;;;3.27;2.97;;;29.00;64.70;;;;;;4994360;28;20457;-65
2022/05/15 07:55:12;;;;;;;10.07;3.00;;;28.60;68.30;;;;;;4994309;28;20454;-65
2022/05/15 07:57:41;;;;;;;5.50;3.17;;;28.90;67.00;;;;;;4993775;28;20902;-65
2022/05/15 08:00:10;;;;;;;3.60;2.50;;;29.00;63.00;;;;;;4998196;28;20934;-65
2022/05/15 08:02:37;;;;;;;5.40;3.07;;;29.30;60.80;;;;;;5003014;28;20485;-65
2022/05/15 08:08:02;;;;;;;2.50;2.30;;;29.90;60.70;;;;;;4998568;28;20465;-65
2022/05/15 08:10:32;;;;;;;4.67;2.60;;;29.80;60.20;;;;;;4998406;28;20438;-65
2022/05/15 08:13:00;;;;;;;2.60;2.40;;;30.10;60.50;;;;;;4997416;28;20927;-65
2022/05/15 08:15:28;;;;;;;3.30;2.50;;;30.40;58.90;;;;;;4998416;28;20462;-65
2022/05/15 08:17:54;;;;;;;4.37;2.50;;;30.50;62.90;;;;;;4997758;28;20859;-65
2022/05/15 08:25:50;;;;;;;3.07;2.53;;;31.90;58.40;;;;;;4997089;28;20422;-65
2022/05/15 08:28:18;;;;;;;2.63;2.47;;;32.50;55.70;;;;;;4997950;28;20457;-65
2022/05/15 08:30:45;;;;;;;3.73;2.53;;;32.60;57.20;;;;;;4996998;28;20477;-65
2022/05/15 08:33:12;;;;;;;2.40;2.20;;;31.90;56.50;;;;;;4997306;28;20453;-65
2022/05/15 08:35:39;;;;;;;3.57;2.67;;;32.00;56.20;;;;;;4997196;28;20458;-65
2022/05/15 08:38:06;;;;;;;2.93;2.70;;;32.20;55.60;;;;;;4997498;28;20462;-65
2022/05/15 08:40:42;;;;;;;2.77;2.57;;;32.40;54.40;;;;;;4997314;28;20500;-65
2022/05/15 08:43:10;;;;;;;3.10;2.40;;;32.80;53.60;;;;;;4997239;28;20465;-65
2022/05/15 08:45:43;;;;;;;3.70;2.10;;;32.70;54.40;;;;;;4997220;28;20508;-65
2022/05/15 08:48:13;;;;;;;2.13;2.00;;;33.00;54.30;;;;;;4997751;28;20903;-65
2022/05/15 08:50:45;;;;;;;4.10;2.10;;;33.40;52.40;;;;;;4998078;28;20481;-65
2022/05/15 08:53:19;;;;;;;4.00;2.10;;;33.20;51.60;;;;;;4997548;28;20437;-65
2022/05/15 08:55:49;;;;;;;3.10;2.53;;;33.50;52.30;;;;;;4997019;28;20499;-65
2022/05/15 08:58:22;;;;;;;5.23;2.30;;;33.30;50.60;;;;;;4996996;28;20437;-65
2022/05/15 09:00:53;;;;;;;3.37;2.53;;;32.80;52.30;;;;;;4996707;28;20485;-64
2022/05/15 09:03:22;;;;;;;3.50;2.30;;;31.90;54.00;;;;;;4997068;28;20469;-65
2022/05/15 09:05:54;;;;;;;4.40;2.63;;;32.00;54.10;;;;;;4996903;28;20457;-65
2022/05/15 09:08:51;;;;;;;3.00;2.30;;;32.60;54.40;;;;;;4997142;28;20469;-65
2022/05/15 09:11:34;;;;;;;4.10;2.10;;;33.00;51.00;;;;;;4981778;28;20584;-65
2022/05/15 09:14:10;;;;;;;3.30;1.90;;;33.50;52.30;;;;;;4996773;28;20504;-65
2022/05/15 09:16:43;;;;;;;3.30;2.33;;;33.40;51.30;;;;;;4997248;28;20441;-65
2022/05/15 09:19:10;;;;;;;3.77;2.10;;;33.60;51.20;;;;;;4996697;28;20449;-65
2022/05/15 09:21:36;;;;;;;2.10;1.80;;;33.90;49.40;;;;;;4996805;28;20500;-65
2022/05/15 09:24:08;;;;;;;2.53;2.33;;;33.90;48.20;;;;;;4996269;28;21006;-65
2022/05/15 09:26:43;;;;;;;2.20;2.00;;;34.20;49.70;;;;;;4996612;28;20516;-65
2022/05/15 09:29:20;;;;;;;3.97;2.20;;;34.00;50.80;;;;;;4996373;28;20448;-65
2022/05/15 09:31:48;;;;;;;5.40;2.57;;;33.90;49.30;;;;;;4996272;28;20479;-65
2022/05/15 09:34:26;;;;;;;2.63;2.03;;;34.40;49.30;;;;;;4996403;28;20465;-65
2022/05/15 09:38:26;;;;;;;4.90;2.23;;;34.50;47.80;;;;;;4996174;28;20448;-65
2022/05/15 09:39:43;;;;;;;2.90;2.10;;;34.20;50.00;;;;;;4995870;28;20449;-65
2022/05/15 09:45:20;;;;;;;2.57;2.37;;;34.90;48.80;;;;;;4995889;28;20791;-65
2022/05/15 09:48:05;;;;;;;3.60;2.07;;;35.20;49.00;;;;;;4995999;28;20448;-65
2022/05/15 09:50:42;;;;;;;3.17;2.27;;;34.80;50.40;;;;;;4995594;28;20484;-65
2022/05/15 09:53:12;;;;;;;2.20;2.00;;;35.20;47.50;;;;;;4995753;28;20834;-65
2022/05/15 09:55:39;;;;;;;2.53;2.43;;;35.60;47.00;;;;;;4995636;28;20449;-65
2022/05/15 09:58:15;;;;;;;2.47;1.87;;;35.60;44.60;;;;;;4995591;28;20453;-65
2022/05/15 10:00:42;;;;;;;6.13;2.20;;;35.60;46.60;;;;;;4995900;28;20491;-65
2022/05/15 10:03:21;;;;;;;2.13;1.93;;;36.10;44.10;;;;;;4995695;28;20461;-65
2022/05/15 10:05:58;;;;;;;1.93;1.83;;;36.40;42.30;;;;;;4995497;28;20445;-65
2022/05/15 10:08:27;;;;;;;2.00;1.90;;;36.00;42.80;;;;;;4996141;28;20898;-65
2022/05/15 10:10:59;;;;;;;2.70;2.10;;;35.60;43.40;;;;;;4995457;28;20472;-65
2022/05/15 10:13:32;;;;;;;2.33;1.80;;;35.40;44.10;;;;;;4995190;28;20888;-65
2022/05/15 10:16:02;;;;;;;2.57;2.20;;;34.70;44.30;;;;;;4995590;28;20849;-65
2022/05/15 10:18:41;;;;;;;2.40;2.20;;;35.00;44.30;;;;;;4995302;28;20512;-65
2022/05/15 10:21:08;;;;;;;2.30;2.10;;;35.30;45.90;;;;;;4995371;28;20477;-65
2022/05/15 10:23:44;;;;;;;2.23;1.83;;;35.80;43.70;;;;;;4995236;28;20473;-65
2022/05/15 10:26:19;;;;;;;2.43;2.07;;;36.30;41.30;;;;;;4995354;28;20862;-65
2022/05/15 10:28:52;;;;;;;2.30;1.90;;;36.50;41.50;;;;;;4995238;28;20452;-65
2022/05/15 10:31:26;;;;;;;2.43;2.33;;;36.20;42.80;;;;;;4994750;28;21004;-65
2022/05/15 10:33:57;;;;;;;4.20;1.83;;;36.10;40.80;;;;;;4995384;28;20437;-65
2022/05/15 10:36:40;;;;;;;4.13;2.20;;;36.40;43.20;;;;;;4995077;28;20582;-65
2022/05/15 10:39:16;;;;;;;2.03;1.83;;;36.60;43.80;;;;;;4994930;28;20449;-65
2022/05/15 10:41:54;;;;;;;3.33;2.13;;;36.40;42.00;;;;;;4994406;28;20839;-65
2022/05/15 10:44:31;;;;;;;2.70;2.10;;;35.90;43.40;;;;;;4995512;28;20430;-65
2022/05/15 10:47:03;;;;;;;2.37;1.90;;;35.50;44.40;;;;;;4994752;28;20437;-65
2022/05/15 10:49:48;;;;;;;2.37;2.17;;;35.30;44.80;;;;;;4994787;28;20433;-65
2022/05/15 10:52:30;;;;;;;2.40;2.20;;;35.10;44.30;;;;;;4994777;28;20500;-65
2022/05/15 10:57:56;;;;;;;2.10;1.93;;;35.60;42.30;;;;;;4994887;28;20413;-65
2022/05/15 11:00:35;;;;;;;5.37;1.93;;;35.90;43.10;;;;;;4994520;28;20472;-65
2022/05/15 11:03:23;;;;;;;3.17;1.70;;;35.80;40.90;;;;;;4995065;28;20465;-65
2022/05/15 11:06:07;;;;;;;3.67;2.17;;;35.80;44.50;;;;;;4995044;28;20460;-65
2022/05/15 11:08:41;;;;;;;1.90;1.80;;;35.90;41.60;;;;;;5005530;28;20434;-65
2022/05/15 11:11:17;;;;;;;2.67;1.70;;;36.10;41.70;;;;;;5000331;28;20469;-65
2022/05/15 11:13:54;;;;;;;2.90;2.40;;;36.20;44.80;;;;;;4995235;28;20437;-65
2022/05/15 11:16:31;;;;;;;2.20;2.00;;;35.90;44.10;;;;;;4995088;28;20847;-64
2022/05/15 11:19:21;;;;;;;3.60;1.93;;;35.50;43.70;;;;;;4995216;28;20902;-65
2022/05/15 11:21:58;;;;;;;3.73;2.53;;;35.30;44.00;;;;;;4994383;28;20516;-65
2022/05/15 11:24:40;;;;;;;1.90;1.80;;;35.00;45.50;;;;;;4994346;28;20464;-65
2022/05/15 11:27:13;;;;;;;2.97;2.03;;;34.90;44.70;;;;;;4994049;28;20941;-65
2022/05/15 11:29:43;;;;;;;4.27;2.03;;;34.60;43.20;;;;;;4994230;28;20448;-65
2022/05/15 11:32:33;;;;;;;2.50;1.90;;;34.30;46.70;;;;;;4994901;28;20484;-65
2022/05/15 11:35:12;;;;;;;2.70;2.50;;;34.20;45.50;;;;;;4999588;28;20438;-65
2022/05/15 11:37:54;;;;;;;2.00;1.87;;;33.90;47.10;;;;;;4998225;28;20971;-65
2022/05/15 11:40:34;;;;;;;3.90;1.97;;;33.50;45.70;;;;;;4998402;28;20843;-64
2022/05/15 11:43:36;;;;;;;2.60;2.27;;;33.10;46.90;;;;;;4998400;28;20489;-65
2022/05/15 11:46:06;;;;;;;2.87;2.10;;;32.60;48.60;;;;;;4998193;28;20441;-65
2022/05/15 11:48:50;;;;;;;2.40;2.20;;;31.70;48.70;;;;;;4998680;28;20458;-65
2022/05/15 11:51:26;;;;;;;2.60;1.90;;;31.40;50.30;;;;;;4998193;28;20564;-65
2022/05/15 11:53:56;;;;;;;1.90;1.63;;;31.30;49.40;;;;;;4998164;28;20457;-65
2022/05/15 11:56:26;;;;;;;2.53;2.30;;;31.40;49.60;;;;;;4997665;28;20817;-65
2022/05/15 11:58:56;;;;;;;3.47;2.10;;;31.50;49.40;;;;;;4998122;28;20496;-65
2022/05/15 12:01:45;;;;;;;2.20;2.10;;;31.60;49.20;;;;;;4997779;28;20481;-66
2022/05/15 12:04:22;;;;;;;2.53;2.30;;;31.80;50.50;;;;;;4998190;28;20478;-65
2022/05/15 12:07:10;;;;;;;2.50;2.03;;;32.10;50.10;;;;;;4997937;28;20449;-65
2022/05/15 12:09:51;;;;;;;5.40;1.93;;;32.20;49.20;;;;;;4997555;28;20449;-65
2022/05/15 12:13:02;;;;;;;3.33;2.13;;;32.10;51.40;;;;;;4997509;28;20477;-65
2022/05/15 12:15:40;;;;;;;3.00;2.10;;;32.00;48.90;;;;;;4997631;28;20481;-65
2022/05/15 12:18:30;;;;;;;3.50;2.23;;;31.90;50.90;;;;;;4997713;28;20437;-65
2022/05/15 12:20:58;;;;;;;2.10;2.00;;;31.90;49.10;;;;;;4997558;28;20492;-65
2022/05/15 12:23:31;;;;;;;2.93;2.40;;;32.10;50.50;;;;;;4997474;28;20573;-65
2022/05/15 12:26:00;;;;;;;2.43;2.10;;;32.10;50.10;;;;;;4997497;28;20803;-65
2022/05/15 12:28:52;;;;;;;6.63;2.60;;;32.00;49.30;;;;;;4997275;28;20457;-65
2022/05/15 12:31:30;;;;;;;2.00;1.90;;;31.90;49.80;;;;;;4996979;28;20474;-65
2022/05/15 12:34:05;;;;;;;2.97;2.00;;;31.80;48.60;;;;;;4997291;28;20440;-65
2022/05/15 12:36:35;;;;;;;3.07;1.90;;;31.70;50.60;;;;;;4997118;28;20879;-65
2022/05/15 12:39:03;;;;;;;5.67;2.37;;;31.90;47.60;;;;;;4996930;28;20865;-65
2022/05/15 12:41:35;;;;;;;4.43;1.87;;;31.90;49.20;;;;;;4997261;28;20503;-65
2022/05/15 12:44:03;;;;;;;3.40;2.23;;;31.90;51.00;;;;;;4996407;28;20466;-65
2022/05/15 12:46:34;;;;;;;3.30;2.13;;;31.90;49.00;;;;;;4997196;28;20496;-65
2022/05/15 12:49:00;;;;;;;2.70;2.50;;;31.50;49.00;;;;;;4997289;28;20438;-65
2022/05/15 12:51:30;;;;;;;3.90;2.30;;;31.50;47.90;;;;;;4997392;28;20531;-65
2022/05/15 12:53:58;;;;;;;2.20;2.10;;;31.40;47.00;;;;;;4997083;28;20457;-65
2022/05/15 12:56:29;;;;;;;2.50;2.00;;;31.30;50.30;;;;;;4997061;28;20458;-65
2022/05/15 12:58:57;;;;;;;1.87;1.80;;;31.50;52.00;;;;;;4996760;28;20477;-65
2022/05/15 13:01:28;;;;;;;3.60;2.17;;;31.30;48.90;;;;;;4996908;28;21009;-65
2022/05/15 13:03:58;;;;;;;2.20;2.00;;;31.10;50.10;;;;;;4997707;28;20478;-65
2022/05/15 13:06:31;;;;;;;3.57;2.83;;;31.10;49.20;;;;;;4996724;28;20503;-65
2022/05/15 13:09:01;;;;;;;2.57;2.37;;;31.00;47.00;;;;;;4997028;28;20450;-65
2022/05/15 13:11:38;;;;;;;2.70;1.93;;;31.00;47.00;;;;;;4996901;28;20563;-65
2022/05/15 13:14:06;;;;;;;2.40;1.90;;;31.10;47.10;;;;;;4996964;28;20477;-65
2022/05/15 13:16:45;;;;;;;2.50;2.00;;;31.00;46.60;;;;;;4996820;28;20457;-65
2022/05/15 13:19:14;;;;;;;2.10;2.00;;;31.10;46.70;;;;;;4996798;28;20477;-65
2022/05/15 13:21:46;;;;;;;2.67;1.90;;;31.20;44.60;;;;;;4996624;28;20531;-65
2022/05/15 13:24:15;;;;;;;2.53;2.33;;;31.30;48.60;;;;;;4996706;28;20475;-65
2022/05/15 13:26:45;;;;;;;2.20;2.00;;;31.20;49.30;;;;;;4996671;28;20465;-65
2022/05/15 13:29:16;;;;;;;3.93;2.30;;;31.20;49.70;;;;;;4996608;28;20914;-65
2022/05/15 13:31:44;;;;;;;3.20;2.60;;;31.30;48.30;;;;;;4996660;28;20477;-65
2022/05/15 13:34:14;;;;;;;3.50;2.43;;;31.40;47.90;;;;;;4996622;28;20460;-65
2022/05/15 13:36:53;;;;;;;2.10;1.90;;;31.30;48.40;;;;;;4996429;28;20441;-65
2022/05/15 13:44:53;;;;;;;5.23;2.37;;;31.00;48.10;;;;;;4996204;28;20486;-65
2022/05/15 13:47:22;;;;;;;3.43;2.10;;;31.00;49.30;;;;;;4996021;28;20461;-65
2022/05/15 13:49:53;;;;;;;2.10;2.00;;;31.10;49.70;;;;;;4995840;28;20454;-65
2022/05/15 13:52:32;;;;;;;2.30;2.07;;;31.30;48.40;;;;;;4996198;28;20478;-65
2022/05/15 13:55:00;;;;;;;3.43;2.60;;;31.20;46.10;;;;;;4995894;28;20441;-65
2022/05/15 13:57:29;;;;;;;2.37;2.17;;;31.10;44.80;;;;;;4994838;28;20464;-65
2022/05/15 14:00:10;;;;;;;8.70;2.20;;;30.90;45.10;;;;;;4995804;28;20458;-65
2022/05/15 14:02:58;;;;;;;2.00;1.90;;;30.80;45.60;;;;;;4995487;28;20548;-65
2022/05/15 14:05:27;;;;;;;2.10;1.70;;;30.60;45.80;;;;;;4995963;28;20454;-65
2022/05/15 14:08:09;;;;;;;2.27;2.07;;;30.50;48.00;;;;;;4995719;28;20850;-65
2022/05/15 14:10:38;;;;;;;2.73;2.00;;;30.60;47.20;;;;;;4995434;28;21097;-65
2022/05/15 14:13:08;;;;;;;2.80;2.13;;;30.70;49.70;;;;;;5000815;28;20512;-65
2022/05/15 14:15:40;;;;;;;2.30;2.10;;;30.70;51.80;;;;;;5003971;28;20795;-65
2022/05/15 14:18:09;;;;;;;1.90;1.80;;;30.80;49.10;;;;;;4995773;28;20442;-65
2022/05/15 14:20:42;;;;;;;3.43;1.80;;;31.00;49.40;;;;;;4995399;28;20480;-64
2022/05/15 14:23:09;;;;;;;2.17;1.97;;;31.10;48.70;;;;;;4995368;28;20474;-64
2022/05/15 14:25:37;;;;;;;2.83;2.63;;;31.30;48.30;;;;;;4995315;28;20461;-65
2022/05/15 14:28:04;;;;;;;1.93;1.83;;;31.40;48.40;;;;;;4995476;28;20488;-64
2022/05/15 14:30:31;;;;;;;3.03;2.23;;;31.30;47.90;;;;;;4995073;28;20947;-65
2022/05/15 14:33:00;;;;;;;2.17;2.00;;;31.00;48.80;;;;;;4994950;28;20449;-65
2022/05/15 14:35:31;;;;;;;2.97;2.37;;;30.90;47.70;;;;;;4995246;28;20461;-65
2022/05/15 14:37:59;;;;;;;2.80;2.60;;;30.90;49.50;;;;;;4995067;28;20449;-65
2022/05/15 14:40:26;;;;;;;3.60;2.80;;;31.00;48.70;;;;;;4995194;28;20453;-65
2022/05/15 14:42:53;;;;;;;2.57;1.90;;;31.10;48.50;;;;;;4994988;28;20485;-65
2022/05/15 14:45:20;;;;;;;4.63;2.13;;;31.00;48.80;;;;;;4994964;28;21017;-65
2022/05/15 14:47:52;;;;;;;2.70;2.50;;;31.00;47.80;;;;;;4995056;28;20986;-65
2022/05/15 14:50:19;;;;;;;3.70;3.20;;;31.00;48.00;;;;;;4994660;28;20810;-65
2022/05/15 14:52:49;;;;;;;5.43;2.93;;;31.10;48.50;;;;;;4994870;28;20830;-65
2022/05/15 14:58:02;;;;;;;3.63;3.33;;;31.10;46.70;;;;;;4994917;28;20422;-65
2022/05/15 15:00:31;;;;;;;5.87;4.33;;;31.10;47.30;;;;;;4994560;28;20458;-65
2022/05/15 15:02:58;;;;;;;40.40;36.50;;;31.10;47.40;;;;;;4995023;28;20473;-64
2022/05/15 15:05:25;;;;;;;11.20;9.90;;;31.00;48.90;;;;;;4994844;28;21002;-65
2022/05/15 15:07:51;;;;;;;4.27;3.97;;;30.70;48.00;;;;;;4994712;28;20457;-65
2022/05/15 15:10:19;;;;;;;2.30;2.10;;;30.60;47.20;;;;;;4994837;28;20457;-65
2022/05/15 15:12:46;;;;;;;2.57;1.97;;;30.60;48.10;;;;;;4994658;28;20454;-65
2022/05/15 15:15:13;;;;;;;2.13;2.00;;;30.50;47.30;;;;;;4994587;28;20450;-65
2022/05/15 15:17:40;;;;;;;1.90;1.80;;;30.50;46.80;;;;;;4995103;28;20872;-64
2022/05/15 15:20:08;;;;;;;6.07;5.47;;;30.50;48.60;;;;;;4994670;28;20457;-64
2022/05/15 15:22:34;;;;;;;2.73;2.53;;;30.50;49.20;;;;;;4995103;28;20481;-64
2022/05/15 15:25:01;;;;;;;8.17;7.40;;;30.60;48.00;;;;;;4994820;28;20477;-64
2022/05/15 15:27:30;;;;;;;5.67;4.20;;;30.40;47.50;;;;;;4995012;28;20458;-65
2022/05/15 15:29:57;;;;;;;4.50;3.77;;;30.40;48.20;;;;;;4995024;28;20458;-65
2022/05/15 15:32:23;;;;;;;2.53;2.30;;;30.40;47.80;;;;;;4994716;28;20473;-65
2022/05/15 15:34:50;;;;;;;3.40;2.57;;;30.40;48.10;;;;;;4994900;28;20449;-66
2022/05/15 15:40:01;;;;;;;2.53;2.33;;;30.50;47.50;;;;;;4994936;28;20433;-65
2022/05/15 15:42:29;;;;;;;3.20;2.80;;;30.60;47.70;;;;;;4994793;28;20477;-65
2022/05/15 15:44:56;;;;;;;5.10;2.77;;;30.70;47.60;;;;;;4994317;28;20568;-64
2022/05/15 15:47:22;;;;;;;3.87;3.00;;;30.60;47.70;;;;;;4994584;28;20914;-64
2022/05/15 15:49:49;;;;;;;2.13;1.97;;;30.60;49.10;;;;;;4994334;28;20466;-65
2022/05/15 15:52:16;;;;;;;5.03;3.13;;;30.60;47.40;;;;;;4994302;28;20484;-65
2022/05/15 15:54:44;;;;;;;2.40;2.20;;;30.70;48.50;;;;;;4994440;28;20529;-64
2022/05/15 15:57:11;;;;;;;3.43;2.00;;;30.70;47.40;;;;;;4994156;28;20485;-64
2022/05/15 15:59:39;;;;;;;4.40;2.77;;;30.70;47.20;;;;;;4994390;28;20458;-66
2022/05/15 16:02:05;;;;;;;2.20;2.00;;;30.50;48.30;;;;;;4994258;28;20891;-65
2022/05/15 16:04:32;;;;;;;3.33;2.97;;;30.40;47.00;;;;;;4994233;28;20478;-65
2022/05/15 16:06:59;;;;;;;2.80;2.10;;;30.40;46.60;;;;;;4994351;28;20458;-66
2022/05/15 16:09:25;;;;;;;2.90;2.33;;;30.30;46.60;;;;;;4994398;28;20460;-65
2022/05/15 16:11:52;;;;;;;3.33;2.73;;;30.20;48.00;;;;;;4994058;28;20505;-66
2022/05/15 16:14:21;;;;;;;4.70;2.00;;;30.10;47.80;;;;;;4994472;28;20454;-66
2022/05/15 16:16:49;;;;;;;3.03;2.50;;;30.10;48.70;;;;;;4994132;28;20457;-65
2022/05/15 16:19:16;;;;;;;2.27;2.00;;;30.10;48.70;;;;;;4994289;28;20951;-66
2022/05/15 16:21:47;;;;;;;2.50;2.03;;;30.00;47.80;;;;;;4997518;28;20531;-65
2022/05/15 16:24:19;;;;;;;3.60;1.83;;;29.90;48.10;;;;;;4997790;28;20465;-65
2022/05/15 16:26:46;;;;;;;2.87;2.30;;;29.80;47.70;;;;;;4997929;28;20544;-65
2022/05/15 16:29:14;;;;;;;2.07;1.97;;;29.70;47.30;;;;;;4997769;28;20460;-64
2022/05/15 16:31:42;;;;;;;3.80;2.30;;;29.70;48.00;;;;;;4997698;28;20864;-64
2022/05/15 16:34:10;;;;;;;2.47;1.90;;;29.50;49.40;;;;;;4997513;28;20476;-64
2022/05/15 16:36:37;;;;;;;2.30;2.20;;;29.40;49.80;;;;;;4997780;28;20457;-65
2022/05/15 16:39:05;;;;;;;3.80;2.00;;;29.40;48.80;;;;;;4997223;28;20846;-65
2022/05/15 16:41:31;;;;;;;2.40;2.20;;;29.20;49.20;;;;;;4997314;28;20478;-64
2022/05/15 16:43:58;;;;;;;3.20;2.50;;;29.10;50.10;;;;;;4997350;28;20457;-65
2022/05/15 16:46:26;;;;;;;2.90;2.70;;;29.00;49.40;;;;;;4997136;28;20450;-65
2022/05/15 16:48:52;;;;;;;3.63;3.33;;;29.00;48.50;;;;;;4997152;28;20463;-66
2022/05/15 16:51:21;;;;;;;4.33;4.03;;;28.90;49.00;;;;;;4997805;28;20532;-65
2022/05/15 16:53:48;;;;;;;4.20;2.70;;;28.80;49.60;;;;;;4997175;28;20453;-65
2022/05/15 16:56:15;;;;;;;5.60;5.10;;;28.80;49.50;;;;;;4997247;28;20461;-65
2022/05/15 16:58:42;;;;;;;7.50;6.90;;;28.70;49.50;;;;;;4997069;28;20454;-65
2022/05/15 17:01:09;;;;;;;3.17;2.20;;;28.60;50.20;;;;;;4996732;28;20847;-65
2022/05/15 17:03:36;;;;;;;4.93;2.67;;;28.60;50.60;;;;;;4998552;28;20449;-66
2022/05/15 17:06:03;;;;;;;2.53;2.33;;;28.50;50.60;;;;;;5001560;28;20482;-65
2022/05/15 17:08:31;;;;;;;2.27;2.13;;;28.40;51.10;;;;;;5001411;28;20458;-65
2022/05/15 17:10:58;;;;;;;3.33;2.70;;;28.30;50.90;;;;;;5000884;28;20842;-65
2022/05/15 17:13:25;;;;;;;3.43;3.10;;;28.20;51.20;;;;;;5000576;28;20457;-65
2022/05/15 17:15:52;;;;;;;4.43;4.03;;;28.10;51.70;;;;;;4997272;28;20461;-65
2022/05/15 17:18:20;;;;;;;5.03;3.80;;;28.00;51.50;;;;;;4997118;28;20489;-65
2022/05/15 17:20:47;;;;;;;8.13;7.43;;;27.80;52.00;;;;;;4996117;28;20532;-65
2022/05/15 17:23:15;;;;;;;5.90;5.40;;;27.80;52.20;;;;;;4997293;28;20461;-65
2022/05/15 17:25:43;;;;;;;13.50;12.20;;;27.70;51.60;;;;;;4996791;28;20473;-65
2022/05/15 17:28:10;;;;;;;7.73;6.87;;;27.60;52.30;;;;;;4997162;28;20465;-65
2022/05/15 17:36:04;;;;;;;7.60;6.67;;;27.40;52.00;;;;;;4996568;28;20414;-65
2022/05/15 17:38:31;;;;;;;3.97;3.67;;;27.40;52.70;;;;;;4996434;28;20453;-65